Fort Wingate, New Mexico
Current Conditions -  °F | °C
As of 1:53 AM on Sunday 21 Dec 2014 (Local Time) from KGUP Reporting Station
Overcast Overcast  
Wind Chill: 29°   Ceiling: 6000
Heat Index: 29°   Visibility: 10mi
Dew Point: 24°   Wind: 0mph
Humidity: 82%   Direction: NA
Pressure: 30.11"   Gusts: NA
Location:  35.47°N, 108.55°W
Report Text: KGUP 210853Z AUTO 00000KT 10SM OVC060 M02/M04 A3011 RMK AO2 SLP189 T10171044 58007
Loading
Personal Weather Stations






























Interactive Weather Map New forecast layout! Learn more

10-Day Weather Forecast

Advertisements
Track Severe Weather on mobile